Time;durP1;ratioP1;P1;durP2;ratioP2;P2;SDS_P1;SDS_P2;PMS_P1;PMS_P2;Temp;Humidity;BMP_temperature;BMP_pressure;BME280_temperature;BME280_humidity;BME280_pressure;Samples;Min_cycle;Max_cycle;Signal;HPM_P1;HPM_P2
2022/07/28 00:01:12;;;;;;;3.90;1.38;;;;;;;;;;5030895;28;20167;-81
2022/07/28 00:03:41;;;;;;;3.00;0.93;;;;;;;;;;5032972;28;20038;-83
2022/07/28 00:06:06;;;;;;;2.20;1.30;;;18.70;71.10;;;;;;5032500;28;20025;-81
2022/07/28 00:08:35;;;;;;;5.10;2.63;;;18.80;71.60;;;;;;5015911;28;20029;-86
2022/07/28 00:11:00;;;;;;;2.38;1.42;;;18.80;71.90;;;;;;5011310;28;20025;-82
2022/07/28 00:13:27;;;;;;;4.00;1.45;;;18.80;71.70;;;;;;5032596;28;20038;-80
2022/07/28 00:15:53;;;;;;;2.92;1.20;;;18.70;71.60;;;;;;5019390;28;20176;-85
2022/07/28 00:18:18;;;;;;;2.75;0.90;;;18.70;71.60;;;;;;5013576;28;20033;-80
2022/07/28 00:20:44;;;;;;;2.08;1.10;;;18.70;71.80;;;;;;5031151;28;20049;-82
2022/07/28 00:23:11;;;;;;;3.75;1.00;;;18.50;71.70;;;;;;5034505;28;20128;-82
2022/07/28 00:25:37;;;;;;;2.60;1.05;;;18.60;72.20;;;;;;5017140;28;20380;-81
2022/07/28 00:28:02;;;;;;;3.00;1.00;;;18.60;72.00;;;;;;5029977;28;20056;-84
2022/07/28 00:30:28;;;;;;;5.57;0.93;;;18.50;72.10;;;;;;5015783;28;20029;-79
2022/07/28 00:32:54;;;;;;;4.15;1.20;;;18.50;72.50;;;;;;5018624;28;20036;-80
2022/07/28 00:35:19;;;;;;;3.28;1.17;;;18.50;72.40;;;;;;5030463;28;20040;-82
2022/07/28 00:37:45;;;;;;;2.30;1.10;;;16.50;71.70;;;;;;5018233;28;20022;-82
2022/07/28 00:40:11;;;;;;;3.13;1.10;;;18.50;72.10;;;;;;5033864;28;20022;-84
2022/07/28 00:42:37;;;;;;;4.28;1.30;;;18.50;72.50;;;;;;5031900;28;20116;-83
2022/07/28 00:45:03;;;;;;;3.95;1.10;;;18.50;72.50;;;;;;5033927;28;20061;-85
2022/07/28 00:47:28;;;;;;;3.88;1.08;;;18.50;72.40;;;;;;5023333;28;20056;-80
2022/07/28 00:49:54;;;;;;;3.40;1.25;;;18.50;72.20;;;;;;5019890;28;20026;-80
2022/07/28 00:52:21;;;;;;;3.10;1.10;;;18.40;72.40;;;;;;5019935;28;20025;-81
2022/07/28 00:54:47;;;;;;;3.03;1.10;;;18.40;72.20;;;;;;5019592;28;20029;-79
2022/07/28 00:57:12;;;;;;;3.28;0.98;;;18.40;72.20;;;;;;5036106;28;20423;-82
2022/07/28 00:59:38;;;;;;;1.88;1.05;;;18.40;72.70;;;;;;5017443;28;20030;-83
2022/07/28 01:02:04;;;;;;;4.45;1.48;;;;;;;;;;5034584;28;20567;-79
2022/07/28 01:04:30;;;;;;;2.50;1.30;;;;;;;;;;5037193;28;20061;-82
2022/07/28 01:07:09;;;;;;;2.38;1.00;;;18.30;72.30;;;;;;5037727;28;20044;-79
2022/07/28 01:09:51;;;;;;;5.60;1.13;;;18.30;72.70;;;;;;5035072;28;20028;-84
2022/07/28 01:12:45;;;;;;;4.15;1.15;;;18.30;72.50;;;;;;5029757;28;20017;-88
2022/07/28 01:15:32;;;;;;;2.22;1.10;;;18.40;71.90;;;;;;5043698;28;20055;-85
2022/07/28 01:18:13;;;;;;;4.97;1.50;;;18.30;72.10;;;;;;5050025;28;20025;-87
2022/07/28 01:20:53;;;;;;;3.97;1.30;;;18.30;72.80;;;;;;5018643;28;20038;-83
2022/07/28 01:23:30;;;;;;;2.83;1.00;;;18.30;72.80;;;;;;5021856;28;20038;-82
2022/07/28 01:26:02;;;;;;;4.32;1.10;;;18.30;72.10;;;;;;5018410;28;21411;-82
2022/07/28 01:28:40;;;;;;;2.85;1.33;;;18.30;71.90;;;;;;5022644;28;20029;-87
2022/07/28 01:31:10;;;;;;;3.58;1.00;;;18.30;72.20;;;;;;5033501;28;20065;-84
2022/07/28 01:33:45;;;;;;;4.72;1.42;;;18.30;72.70;;;;;;5017582;28;20028;-81
2022/07/28 01:36:16;;;;;;;2.67;1.20;;;18.40;72.50;;;;;;5032861;28;20061;-82
2022/07/28 01:38:42;;;;;;;;;;;18.90;72.90;;;;;;5033985;28;20025;-83
2022/07/28 01:41:13;;;;;;;7.80;1.45;;;18.20;72.20;;;;;;5018461;28;19996;-84
2022/07/28 01:43:42;;;;;;;3.08;1.02;;;18.20;72.40;;;;;;5007148;28;20033;-83
2022/07/28 01:46:08;;;;;;;1.67;1.00;;;;;;;;;;5021763;28;20030;-87
2022/07/28 01:48:38;;;;;;;3.05;1.20;;;18.10;72.30;;;;;;5042004;28;20116;-85
2022/07/28 01:51:06;;;;;;;2.53;1.15;;;18.10;72.90;;;;;;5033913;28;20029;-85
2022/07/28 01:53:33;;;;;;;6.55;1.10;;;18.10;72.80;;;;;;5021051;28;20053;-87
2022/07/28 01:56:02;;;;;;;2.40;1.20;;;18.00;73.10;;;;;;5015919;28;20033;-85
2022/07/28 01:58:29;;;;;;;2.78;1.10;;;18.20;72.00;;;;;;5036827;28;20100;-81
2022/07/28 02:00:57;;;;;;;3.55;1.08;;;18.20;72.70;;;;;;5020193;28;20029;-82
2022/07/28 02:03:27;;;;;;;3.25;1.02;;;18.10;72.50;;;;;;5018691;28;20472;-85
2022/07/28 02:05:55;;;;;;;2.97;0.98;;;18.10;72.90;;;;;;5020484;28;20056;-82
2022/07/28 02:08:23;;;;;;;2.40;0.90;;;18.10;72.40;;;;;;5037791;28;20029;-85
2022/07/28 02:13:38;;;;;;;4.47;0.85;;;18.00;73.00;;;;;;5035058;28;20036;-83
2022/07/28 02:16:06;;;;;;;3.33;1.20;;;18.00;72.90;;;;;;5021754;28;20037;-83
2022/07/28 02:18:34;;;;;;;3.05;1.10;;;17.90;72.90;;;;;;5037445;28;20025;-83
2022/07/28 02:21:02;;;;;;;5.05;1.40;;;17.80;72.80;;;;;;5021087;28;20485;-82
2022/07/28 02:23:28;;;;;;;6.13;1.10;;;;;;;;;;5017113;28;20033;-83
2022/07/28 02:25:56;;;;;;;3.63;1.00;;;17.70;73.10;;;;;;5022302;28;20052;-83
2022/07/28 02:28:26;;;;;;;1.77;0.90;;;17.70;73.30;;;;;;5026332;28;20025;-85
2022/07/28 02:30:58;;;;;;;3.60;1.00;;;17.70;73.20;;;;;;5039909;28;20028;-84
2022/07/28 02:33:27;;;;;;;4.70;1.23;;;17.70;73.40;;;;;;5023253;28;20351;-83
2022/07/28 02:36:06;;;;;;;4.47;1.00;;;17.60;73.60;;;;;;5018653;28;20544;-83
2022/07/28 02:38:39;;;;;;;2.45;1.00;;;17.60;74.00;;;;;;5020138;28;20052;-83
2022/07/28 02:41:31;;;;;;;2.95;0.98;;;18.80;74.60;;;;;;5030114;28;20121;-83
2022/07/28 02:44:00;;;;;;;3.53;0.93;;;17.60;73.80;;;;;;5015382;28;20038;-81
2022/07/28 02:46:36;;;;;;;5.63;2.55;;;17.50;74.00;;;;;;5038092;28;20021;-85
2022/07/28 02:49:06;;;;;;;1.77;1.00;;;17.50;74.10;;;;;;5021263;28;20027;-84
2022/07/28 02:51:33;;;;;;;5.50;1.42;;;;;;;;;;5021616;28;20010;-84
2022/07/28 02:53:59;;;;;;;3.70;1.10;;;;;;;;;;5031501;28;20037;-88
2022/07/28 02:56:27;;;;;;;3.20;0.90;;;17.50;73.90;;;;;;5037923;28;20009;-87
2022/07/28 02:58:54;;;;;;;3.55;1.20;;;17.50;74.40;;;;;;5045457;28;20026;-82
2022/07/28 03:01:20;;;;;;;3.08;0.95;;;17.50;74.40;;;;;;5031187;28;20064;-81
2022/07/28 03:03:48;;;;;;;3.58;1.02;;;17.40;74.70;;;;;;5018870;28;20030;-80
2022/07/28 03:06:18;;;;;;;3.63;0.80;;;20.00;75.60;;;;;;5016943;28;20048;-78
2022/07/28 03:08:44;;;;;;;3.75;1.20;;;17.50;74.20;;;;;;5035786;28;20120;-81
2022/07/28 03:11:12;;;;;;;3.13;1.00;;;17.40;74.50;;;;;;5016901;28;20053;-83
2022/07/28 03:13:39;;;;;;;5.57;1.08;;;17.40;74.80;;;;;;5036872;28;20127;-81
2022/07/28 03:16:06;;;;;;;2.97;1.13;;;17.40;74.80;;;;;;5017452;28;20422;-82
2022/07/28 03:18:32;;;;;;;1.95;1.02;;;17.30;75.00;;;;;;5032947;28;20025;-79
2022/07/28 03:20:57;;;;;;;7.30;1.20;;;18.80;76.00;;;;;;5035506;28;20034;-82
2022/07/28 03:23:32;;;;;;;3.42;1.17;;;17.20;75.10;;;;;;5019148;28;20035;-83
2022/07/28 03:26:04;;;;;;;2.70;1.20;;;17.10;75.50;;;;;;5020992;28;20065;-81
2022/07/28 03:28:30;;;;;;;5.03;1.30;;;17.20;75.50;;;;;;5017289;28;20033;-82
2022/07/28 03:31:06;;;;;;;3.60;1.15;;;17.10;75.50;;;;;;5020321;28;20025;-86
2022/07/28 03:33:32;;;;;;;4.78;0.90;;;17.10;75.00;;;;;;5021253;28;20029;-85
2022/07/28 03:36:01;;;;;;;2.38;1.02;;;17.10;75.40;;;;;;5021701;28;20103;-81
2022/07/28 03:38:37;;;;;;;3.65;0.93;;;17.20;75.30;;;;;;5022605;28;20101;-82
2022/07/28 03:41:06;;;;;;;3.00;0.93;;;17.10;75.40;;;;;;5016884;28;20029;-83
2022/07/28 03:43:33;;;;;;;3.70;0.90;;;17.10;76.20;;;;;;5037567;28;20029;-81
2022/07/28 03:45:59;;;;;;;2.78;1.10;;;;;;;;;;5017115;28;20030;-82
2022/07/28 03:48:29;;;;;;;3.60;1.10;;;17.00;75.50;;;;;;5028023;28;20089;-82
2022/07/28 03:50:55;;;;;;;5.13;1.00;;;;;;;;;;5020618;28;20029;-83
2022/07/28 03:53:24;;;;;;;3.40;0.98;;;17.10;75.60;;;;;;5022028;28;20048;-84
2022/07/28 03:55:50;;;;;;;2.97;0.90;;;17.10;75.10;;;;;;5020575;28;20532;-81
2022/07/28 03:58:21;;;;;;;3.15;1.08;;;17.10;75.60;;;;;;5038257;28;20033;-82
2022/07/28 04:00:48;;;;;;;4.35;1.00;;;17.10;75.70;;;;;;5012165;28;20628;-80
2022/07/28 04:03:14;;;;;;;1.85;0.90;;;17.10;75.90;;;;;;5023532;28;20091;-82
2022/07/28 04:05:40;;;;;;;3.75;1.20;;;17.10;75.90;;;;;;5019127;28;20117;-81
2022/07/28 04:08:06;;;;;;;7.80;1.52;;;;;;;;;;5026430;28;20289;-84
2022/07/28 04:10:31;;;;;;;4.85;1.17;;;17.10;75.50;;;;;;5044258;28;20036;-86
2022/07/28 04:12:59;;;;;;;4.00;0.90;;;17.00;76.10;;;;;;5029696;28;20029;-83
2022/07/28 04:15:26;;;;;;;3.95;0.93;;;17.00;76.30;;;;;;5026654;28;20029;-86
2022/07/28 04:17:53;;;;;;;6.80;1.42;;;16.50;76.00;;;;;;5029445;28;20017;-81
2022/07/28 04:20:21;;;;;;;3.05;1.00;;;16.80;76.20;;;;;;5025865;28;20032;-85
2022/07/28 04:22:48;;;;;;;3.38;1.42;;;16.80;76.60;;;;;;5036483;28;20029;-81
2022/07/28 04:25:17;;;;;;;9.85;1.45;;;16.80;77.10;;;;;;5037331;28;20387;-83
2022/07/28 04:27:43;;;;;;;4.80;1.08;;;16.90;76.10;;;;;;5016119;28;20026;-80
2022/07/28 04:30:12;;;;;;;3.63;1.13;;;16.80;76.10;;;;;;4998832;28;20029;-81
2022/07/28 04:32:43;;;;;;;2.00;0.88;;;16.80;76.40;;;;;;5019440;28;20025;-82
2022/07/28 04:35:09;;;;;;;3.63;1.08;;;16.80;76.90;;;;;;5015852;28;20025;-82
2022/07/28 04:37:37;;;;;;;6.32;1.42;;;16.80;76.90;;;;;;5014462;28;20014;-80
2022/07/28 04:40:04;;;;;;;3.70;1.10;;;16.80;76.40;;;;;;5033409;28;20022;-80
2022/07/28 04:42:30;;;;;;;5.65;1.20;;;16.70;76.80;;;;;;5008642;28;20025;-81
2022/07/28 04:44:55;;;;;;;5.00;1.30;;;16.80;77.50;;;;;;5017466;28;20029;-85
2022/07/28 04:47:23;;;;;;;3.25;1.08;;;16.90;76.90;;;;;;5015206;28;20058;-80
2022/07/28 04:49:49;;;;;;;2.75;1.00;;;16.90;76.40;;;;;;5034793;28;20555;-86
2022/07/28 04:52:15;;;;;;;4.53;0.98;;;17.10;76.90;;;;;;5017129;28;20034;-80
2022/07/28 04:54:41;;;;;;;3.88;1.00;;;17.00;76.20;;;;;;5020950;28;20041;-80
2022/07/28 04:57:07;;;;;;;3.47;1.17;;;17.00;76.20;;;;;;5019201;28;20199;-81
2022/07/28 04:59:34;;;;;;;2.47;1.15;;;;;;;;;;5017334;28;20030;-83
2022/07/28 05:02:00;;;;;;;12.02;1.50;;;;;;;;;;5018360;28;20025;-84
2022/07/28 05:04:26;;;;;;;4.00;1.00;;;;;;;;;;5013341;28;20030;-82
2022/07/28 05:06:52;;;;;;;5.53;1.45;;;;;;;;;;5037603;28;20025;-84
2022/07/28 05:09:18;;;;;;;4.28;1.23;;;;;;;;;;5017483;28;20022;-85
2022/07/28 05:11:45;;;;;;;3.65;1.10;;;;;;;;;;5034477;28;20026;-87
2022/07/28 05:14:11;;;;;;;3.53;1.10;;;;;;;;;;5033750;28;20788;-81
2022/07/28 05:16:38;;;;;;;4.30;1.38;;;17.20;75.70;;;;;;5020975;28;20032;-85
2022/07/28 05:19:04;;;;;;;3.78;1.27;;;;;;;;;;5012392;28;20033;-84
2022/07/28 05:21:30;;;;;;;2.63;1.00;;;;;;;;;;5013114;28;20112;-83
2022/07/28 05:23:55;;;;;;;3.92;1.60;;;17.10;75.80;;;;;;5029853;28;20140;-83
2022/07/28 05:26:22;;;;;;;4.38;1.10;;;;;;;;;;5023168;28;20060;-84
2022/07/28 05:28:48;;;;;;;4.45;1.17;;;;;;;;;;5035276;28;20029;-87
2022/07/28 05:31:14;;;;;;;4.18;1.10;;;;;;;;;;5003981;28;20026;-85
2022/07/28 05:33:40;;;;;;;2.78;1.05;;;;;;;;;;5018262;28;20021;-84
2022/07/28 05:36:06;;;;;;;3.33;1.10;;;17.40;75.50;;;;;;5037259;28;20037;-84
2022/07/28 05:38:32;;;;;;;2.72;1.20;;;;;;;;;;5039179;28;20017;-83
2022/07/28 05:40:59;;;;;;;4.63;1.42;;;;;;;;;;5032316;28;20034;-83
2022/07/28 05:43:25;;;;;;;2.72;1.10;;;;;;;;;;5019891;28;20037;-85
2022/07/28 05:45:51;;;;;;;5.35;1.25;;;;;;;;;;5016216;28;20116;-84
2022/07/28 05:48:20;;;;;;;5.30;1.40;;;17.50;75.40;;;;;;5034234;28;20398;-88
2022/07/28 05:50:48;;;;;;;2.40;1.25;;;17.50;75.30;;;;;;5050561;28;20045;-82
2022/07/28 05:53:14;;;;;;;4.13;1.17;;;;;;;;;;5019473;28;20044;-84
2022/07/28 05:55:40;;;;;;;4.70;1.05;;;;;;;;;;5033694;28;20025;-84
2022/07/28 05:58:06;;;;;;;4.25;1.40;;;;;;;;;;5035448;28;20045;-82
2022/07/28 06:00:32;;;;;;;5.30;1.50;;;17.60;75.70;;;;;;5036759;28;20026;-86
2022/07/28 06:03:01;;;;;;;3.65;1.10;;;;;;;;;;5028288;28;20419;-85
2022/07/28 06:05:29;;;;;;;4.45;1.23;;;17.60;75.50;;;;;;5020290;28;20590;-84
2022/07/28 06:07:55;;;;;;;2.80;1.00;;;;;;;;;;5030847;28;20088;-83
2022/07/28 06:10:24;;;;;;;3.53;1.23;;;17.60;75.70;;;;;;5024672;28;20056;-84
2022/07/28 06:12:51;;;;;;;5.70;1.10;;;17.70;75.20;;;;;;5020744;28;20033;-85
2022/07/28 06:15:22;;;;;;;5.82;1.38;;;17.70;75.20;;;;;;5036424;28;20025;-85
2022/07/28 06:17:52;;;;;;;4.18;1.48;;;17.70;75.20;;;;;;5021294;28;20114;-86
2022/07/28 06:20:19;;;;;;;6.90;1.48;;;17.90;75.10;;;;;;5013659;28;20029;-85
2022/07/28 06:22:49;;;;;;;3.92;1.50;;;18.00;74.90;;;;;;5016274;28;20026;-87
2022/07/28 06:25:23;;;;;;;5.13;1.40;;;18.30;75.60;;;;;;5020059;28;20033;-83
2022/07/28 06:27:51;;;;;;;5.25;1.20;;;18.00;74.80;;;;;;5026075;28;20044;-86
2022/07/28 06:30:17;;;;;;;3.40;1.20;;;18.80;75.70;;;;;;5012756;28;20030;-86
2022/07/28 06:32:44;;;;;;;1.98;0.95;;;18.20;74.50;;;;;;5016715;28;20537;-84
2022/07/28 06:35:13;;;;;;;11.90;1.85;;;;;;;;;;5011568;28;20041;-82
2022/07/28 06:37:39;;;;;;;6.63;1.48;;;;;;;;;;5012178;28;20080;-84
2022/07/28 06:40:06;;;;;;;2.33;0.90;;;18.40;73.70;;;;;;5009938;28;20033;-81
2022/07/28 06:42:32;;;;;;;3.67;1.20;;;;;;;;;;4997006;28;20112;-84
2022/07/28 06:44:58;;;;;;;5.40;0.98;;;;;;;;;;5017667;28;20021;-83
2022/07/28 06:47:24;;;;;;;2.90;1.02;;;;;;;;;;5035748;28;20030;-80
2022/07/28 06:49:50;;;;;;;2.15;1.00;;;;;;;;;;5024106;28;20045;-83
2022/07/28 06:52:19;;;;;;;7.45;1.27;;;;;;;;;;5010879;28;20032;-87
2022/07/28 06:54:45;;;;;;;3.50;1.13;;;;;;;;;;5012014;28;20044;-85
2022/07/28 06:57:12;;;;;;;5.65;1.40;;;;;;;;;;5030641;28;20767;-82
2022/07/28 06:59:38;;;;;;;5.20;0.95;;;;;;;;;;5027743;28;20095;-81
2022/07/28 07:02:04;;;;;;;5.97;1.30;;;;;;;;;;5032730;28;20191;-82
2022/07/28 07:04:30;;;;;;;4.30;1.02;;;;;;;;;;5001149;28;20033;-84
2022/07/28 07:06:56;;;;;;;2.90;1.13;;;;;;;;;;5030839;28;20047;-83
2022/07/28 07:09:23;;;;;;;2.60;1.08;;;;;;;;;;5019344;28;20025;-83
2022/07/28 07:11:48;;;;;;;4.55;1.13;;;;;;;;;;5032414;28;20029;-84
2022/07/28 07:14:15;;;;;;;3.58;1.52;;;;;;;;;;5032834;28;20117;-84
2022/07/28 07:16:42;;;;;;;4.50;1.25;;;;;;;;;;5015401;28;20057;-81
2022/07/28 07:19:09;;;;;;;3.20;1.00;;;;;;;;;;5030908;28;20498;-83
2022/07/28 07:21:35;;;;;;;4.93;1.33;;;;;;;;;;5015850;28;20043;-82
2022/07/28 07:24:01;;;;;;;4.07;1.10;;;;;;;;;;5017097;28;20137;-85
2022/07/28 07:26:27;;;;;;;4.32;1.55;;;;;;;;;;5033048;28;20246;-87
2022/07/28 07:28:53;;;;;;;4.88;1.60;;;;;;;;;;5024564;28;20042;-87
2022/07/28 07:31:19;;;;;;;5.60;1.10;;;;;;;;;;5029786;28;20025;-83
2022/07/28 07:33:45;;;;;;;7.30;2.85;;;;;;;;;;5038184;28;20335;-87
2022/07/28 07:56:53;;;;;;;2.78;1.35;;;;;;;;;;5026364;28;20028;-91
2022/07/28 07:59:19;;;;;;;3.28;1.10;;;;;;;;;;5014327;28;20018;-90
2022/07/28 08:02:08;;;;;;;4.15;1.10;;;;;;;;;;5014128;28;20011;-90
2022/07/28 08:04:39;;;;;;;1.77;1.10;;;;;;;;;;5006648;28;20035;-89
2022/07/28 08:07:06;;;;;;;3.58;1.40;;;;;;;;;;5017799;28;20006;-91
2022/07/28 10:09:13;;;;;;;3.22;1.88;;;24.70;68.10;;;;;;5005660;28;20057;-82
2022/07/28 10:11:39;;;;;;;4.57;1.60;;;;;;;;;;4992668;28;20124;-84
2022/07/28 10:14:06;;;;;;;5.75;1.77;;;24.90;67.90;;;;;;4984190;28;20019;-86
2022/07/28 10:16:41;;;;;;;3.55;1.60;;;25.10;67.80;;;;;;4970095;28;20224;-85
2022/07/28 10:19:07;;;;;;;3.42;1.60;;;;;;;;;;4966255;28;20034;-85
2022/07/28 10:21:40;;;;;;;5.25;1.80;;;25.30;67.40;;;;;;4967841;28;20035;-84
2022/07/28 10:24:07;;;;;;;7.47;1.65;;;;;;;;;;4968098;28;20050;-86
2022/07/28 10:26:37;;;;;;;5.88;1.90;;;;;;;;;;4972278;28;20049;-84
2022/07/28 10:29:08;;;;;;;3.53;1.60;;;;;;;;;;4984626;28;20477;-86
2022/07/28 10:31:44;;;;;;;3.67;1.80;;;25.50;67.60;;;;;;4954048;28;20027;-85
2022/07/28 10:34:23;;;;;;;5.13;2.20;;;25.50;68.00;;;;;;4969697;28;20050;-85
2022/07/28 10:36:50;;;;;;;4.65;1.92;;;;;;;;;;4977493;28;20550;-86
2022/07/28 10:39:18;;;;;;;3.92;1.70;;;;;;;;;;4982523;28;20417;-85
2022/07/28 10:41:50;;;;;;;7.10;2.10;;;;;;;;;;4983030;28;20102;-85
2022/07/28 10:44:32;;;;;;;4.70;2.00;;;;;;;;;;4966121;28;20098;-84
2022/07/28 10:47:19;;;;;;;4.88;2.20;;;;;;;;;;4980738;28;20109;-85
2022/07/28 10:53:14;;;;;;;5.30;2.22;;;;;;;;;;4977268;28;20035;-85
2022/07/28 11:00:17;;;;;;;3.55;2.17;;;26.70;67.00;;;;;;4955373;28;20031;-83
2022/07/28 11:11:15;;;;;;;;;;;;;;;;;;;;;
2022/07/28 11:21:04;;;;;;;4.72;2.30;;;27.00;66.60;;;;;;4918450;28;20106;-85
2022/07/28 11:23:53;;;;;;;7.45;2.33;;;27.00;66.50;;;;;;4978129;28;20035;-84
2022/07/28 11:26:19;;;;;;;5.80;2.35;;;;;;;;;;4967536;28;22222;-84
2022/07/28 11:29:04;;;;;;;5.28;2.33;;;27.10;66.40;;;;;;4971775;28;20042;-85
2022/07/28 11:31:45;;;;;;;5.93;2.22;;;27.30;66.60;;;;;;4983618;28;20085;-85
2022/07/28 11:34:12;;;;;;;4.05;2.13;;;27.30;66.40;;;;;;4994100;28;20018;-85
2022/07/28 11:36:57;;;;;;;5.20;2.20;;;27.40;65.80;;;;;;5030226;23;20041;-82
2022/07/28 11:39:29;;;;;;;5.50;2.60;;;27.50;66.50;;;;;;5021849;28;20026;-85
2022/07/28 11:41:55;;;;;;;5.40;2.00;;;27.60;66.10;;;;;;5021258;28;20026;-83
2022/07/28 11:44:30;;;;;;;4.95;2.47;;;27.60;66.00;;;;;;5000915;28;20037;-84
2022/07/28 11:47:19;;;;;;;5.40;2.47;;;26.70;65.50;;;;;;4989656;28;20434;-83
2022/07/28 11:50:05;;;;;;;6.57;2.15;;;27.40;66.20;;;;;;5009595;28;20085;-82
2022/07/28 11:52:31;;;;;;;5.82;2.42;;;;;;;;;;4995698;28;20090;-84
2022/07/28 11:54:57;;;;;;;5.28;2.30;;;;;;;;;;4983752;28;20081;-85
2022/07/28 11:57:25;;;;;;;4.28;2.20;;;28.10;65.10;;;;;;4982478;28;20496;-81
2022/07/28 11:59:52;;;;;;;6.38;2.30;;;28.20;64.70;;;;;;4983989;28;20026;-86
2022/07/28 12:02:21;;;;;;;4.60;2.17;;;28.10;65.40;;;;;;4988464;28;20113;-87
2022/07/28 12:04:58;;;;;;;5.10;2.50;;;28.20;64.50;;;;;;4976399;28;20026;-85
2022/07/28 12:07:37;;;;;;;6.68;2.53;;;28.10;64.70;;;;;;4980916;28;20111;-82
2022/07/28 12:10:22;;;;;;;4.22;2.20;;;27.90;65.10;;;;;;4996431;28;20393;-81
2022/07/28 12:12:54;;;;;;;3.65;2.25;;;27.90;65.60;;;;;;4999534;28;20030;-81
2022/07/28 12:15:20;;;;;;;4.05;2.70;;;28.10;65.70;;;;;;4974792;28;20034;-83
2022/07/28 12:17:47;;;;;;;7.63;2.90;;;27.90;65.50;;;;;;4997323;28;20031;-83
2022/07/28 12:20:15;;;;;;;3.40;2.33;;;27.80;65.30;;;;;;5000711;28;20033;-84
2022/07/28 12:23:01;;;;;;;4.93;2.60;;;27.80;65.80;;;;;;4983913;28;20030;-85
2022/07/28 12:25:27;;;;;;;7.97;2.80;;;27.90;66.00;;;;;;5001406;28;20030;-86
2022/07/28 12:27:53;;;;;;;4.70;2.70;;;28.10;65.70;;;;;;4993679;28;20342;-83
2022/07/28 12:30:27;;;;;;;4.32;2.67;;;28.20;65.10;;;;;;5007096;28;20026;-84
2022/07/28 12:32:54;;;;;;;5.40;2.38;;;28.40;64.80;;;;;;4963923;28;20030;-85
2022/07/28 12:35:22;;;;;;;3.65;2.70;;;28.60;65.00;;;;;;4982178;28;20058;-83
2022/07/28 12:37:48;;;;;;;9.82;3.08;;;28.80;64.80;;;;;;4983170;28;20165;-83
2022/07/28 12:40:16;;;;;;;7.70;2.75;;;29.10;63.70;;;;;;4999771;28;20019;-81
2022/07/28 12:42:43;;;;;;;5.65;2.80;;;29.00;64.30;;;;;;4968637;28;20042;-84
2022/07/28 12:45:11;;;;;;;7.10;2.80;;;29.00;63.90;;;;;;4982402;28;20026;-82
2022/07/28 12:47:38;;;;;;;5.60;2.75;;;28.80;64.00;;;;;;4985046;28;20089;-82
2022/07/28 12:50:18;;;;;;;9.15;2.70;;;28.60;64.50;;;;;;5000404;28;20030;-81
2022/07/28 12:53:03;;;;;;;7.00;2.75;;;28.40;64.60;;;;;;4979248;28;20110;-83
2022/07/28 12:55:31;;;;;;;4.65;2.67;;;;;;;;;;5000361;28;20408;-82
2022/07/28 12:57:56;;;;;;;5.22;2.72;;;28.20;65.10;;;;;;4974068;28;20058;-83
2022/07/28 13:00:26;;;;;;;5.75;2.70;;;28.30;65.70;;;;;;5003726;28;20031;-85
2022/07/28 13:02:55;;;;;;;;;;;28.20;65.50;;;;;;4991505;28;20085;-83
2022/07/28 13:08:21;;;;;;;;;;;28.00;65.80;;;;;;5001910;28;20165;-80
2022/07/28 13:10:49;;;;;;;5.88;2.90;;;28.00;65.70;;;;;;4976253;28;19920;-81
2022/07/28 13:13:16;;;;;;;6.18;2.70;;;27.90;66.50;;;;;;4972738;28;20031;-83
2022/07/28 13:15:42;;;;;;;4.20;2.85;;;27.70;65.90;;;;;;4988020;28;20030;-82
2022/07/28 13:18:07;;;;;;;5.47;2.83;;;27.80;66.30;;;;;;4984117;28;20034;-82
2022/07/28 13:20:52;;;;;;;4.15;2.95;;;27.70;65.50;;;;;;4974382;28;20099;-81
2022/07/28 13:23:18;;;;;;;8.20;2.50;;;27.70;66.10;;;;;;4978798;28;20030;-81
2022/07/28 13:25:44;;;;;;;3.42;2.60;;;;;;;;;;4975071;28;20045;-82
2022/07/28 13:28:24;;;;;;;4.10;2.70;;;27.90;65.80;;;;;;5002346;28;20014;-83
2022/07/28 13:30:50;;;;;;;4.72;2.90;;;;;;;;;;4986371;28;20095;-81
2022/07/28 13:33:16;;;;;;;4.55;2.67;;;;;;;;;;4978821;28;20030;-82
2022/07/28 13:35:43;;;;;;;9.45;2.92;;;;;;;;;;4979995;28;20042;-86
2022/07/28 13:38:09;;;;;;;12.98;3.00;;;;;;;;;;4999993;28;20460;-81
2022/07/28 13:40:41;;;;;;;4.90;2.55;;;28.50;65.30;;;;;;4972710;28;20409;-85
2022/07/28 13:43:07;;;;;;;5.18;2.47;;;;;;;;;;4997079;28;20023;-85
2022/07/28 13:45:34;;;;;;;7.50;2.40;;;28.90;64.60;;;;;;4976627;28;20078;-83
2022/07/28 13:48:02;;;;;;;7.28;2.40;;;28.90;65.20;;;;;;4995674;28;20019;-82
2022/07/28 13:50:29;;;;;;;8.75;2.83;;;;;;;;;;4978530;28;20028;-81
2022/07/28 13:52:58;;;;;;;8.10;2.47;;;29.00;64.00;;;;;;4981149;28;20086;-83
2022/07/28 13:55:26;;;;;;;5.28;2.25;;;29.00;64.10;;;;;;4986263;28;20038;-85
2022/07/28 13:57:52;;;;;;;7.18;2.95;;;28.70;64.40;;;;;;5006832;28;20054;-83
2022/07/28 14:00:18;;;;;;;4.03;2.72;;;28.40;65.10;;;;;;4988623;28;20041;-86
2022/07/28 14:02:45;;;;;;;6.03;2.78;;;28.30;65.60;;;;;;4978929;28;20037;-81
2022/07/28 14:05:11;;;;;;;5.28;2.92;;;28.20;65.70;;;;;;5003189;28;20033;-82
2022/07/28 14:07:37;;;;;;;5.03;2.33;;;28.00;65.80;;;;;;4991929;28;20022;-82
2022/07/28 14:10:04;;;;;;;5.90;2.63;;;28.00;66.10;;;;;;4984320;28;20069;-82
2022/07/28 14:12:30;;;;;;;4.95;2.42;;;28.10;66.10;;;;;;4982695;28;20512;-83
2022/07/28 14:14:57;;;;;;;4.95;2.30;;;28.10;66.20;;;;;;4983913;28;20034;-86
2022/07/28 14:17:24;;;;;;;4.03;2.60;;;27.70;65.90;;;;;;4962901;28;20042;-85
2022/07/28 14:19:50;;;;;;;8.98;3.50;;;27.80;65.90;;;;;;5001133;28;20132;-82
2022/07/28 14:22:15;;;;;;;4.88;2.30;;;27.80;66.40;;;;;;4973909;28;20452;-83
2022/07/28 14:24:42;;;;;;;7.47;2.83;;;27.80;66.00;;;;;;4949647;28;20093;-82
2022/07/28 14:27:07;;;;;;;5.43;2.40;;;27.70;66.10;;;;;;4981355;28;20049;-84
2022/07/28 14:29:33;;;;;;;4.38;2.53;;;;;;;;;;4983727;28;20031;-82
2022/07/28 14:31:59;;;;;;;6.05;2.67;;;;;;;;;;4975728;28;20026;-81
2022/07/28 14:34:25;;;;;;;4.40;2.70;;;;;;;;;;4986726;28;20476;-84
2022/07/28 14:36:52;;;;;;;8.93;3.15;;;;;;;;;;5000108;28;20035;-81
2022/07/28 14:39:18;;;;;;;5.82;2.83;;;27.30;66.50;;;;;;4999804;28;20035;-86
2022/07/28 14:41:44;;;;;;;4.50;2.38;;;;;;;;;;4981352;28;20167;-83
2022/07/28 14:44:10;;;;;;;5.15;2.85;;;;;;;;;;4983620;28;20037;-84
2022/07/28 14:46:36;;;;;;;4.25;2.45;;;;;;;;;;4982334;28;20026;-82
2022/07/28 14:49:02;;;;;;;7.45;2.60;;;;;;;;;;4981544;28;20534;-84
2022/07/28 14:51:28;;;;;;;6.18;2.85;;;;;;;;;;5003063;28;20062;-84
2022/07/28 14:53:56;;;;;;;4.82;2.50;;;;;;;;;;4980543;28;20026;-82
2022/07/28 14:56:23;;;;;;;6.00;2.50;;;;;;;;;;4999682;28;20034;-86
2022/07/28 14:58:49;;;;;;;4.97;2.50;;;;;;;;;;5012957;28;20006;-85
2022/07/28 15:01:16;;;;;;;5.95;2.92;;;;;;;;;;5003400;28;20019;-85
2022/07/28 15:03:42;;;;;;;12.05;2.90;;;;;;;;;;5018035;28;20040;-87
2022/07/28 15:06:09;;;;;;;8.18;2.67;;;;;;;;;;5020354;28;20041;-91
2022/07/28 15:08:36;;;;;;;9.07;3.08;;;27.00;67.10;;;;;;5014774;28;20026;-89
2022/07/28 15:11:02;;;;;;;6.45;3.05;;;;;;;;;;5016320;28;20042;-88
2022/07/28 15:13:27;;;;;;;5.85;2.53;;;27.00;67.30;;;;;;5020017;28;20034;-87
2022/07/28 15:15:53;;;;;;;5.22;2.70;;;;;;;;;;5004596;28;20018;-87
2022/07/28 15:18:19;;;;;;;8.45;3.40;;;;;;;;;;4993169;28;20018;-88
2022/07/28 15:20:48;;;;;;;6.72;3.03;;;;;;;;;;4986170;28;20026;-83
2022/07/28 15:23:14;;;;;;;5.05;2.63;;;;;;;;;;4978384;28;20045;-83
2022/07/28 15:25:39;;;;;;;4.20;2.42;;;27.30;67.40;;;;;;4990461;28;20027;-83
2022/07/28 15:28:05;;;;;;;4.15;2.70;;;27.40;67.60;;;;;;4981068;28;20587;-82
2022/07/28 15:30:31;;;;;;;5.15;2.45;;;;;;;;;;4989728;28;20034;-85
2022/07/28 15:33:00;;;;;;;7.25;2.78;;;;;;;;;;5000922;28;20033;-82
2022/07/28 15:35:26;;;;;;;4.85;2.70;;;27.50;66.50;;;;;;4998688;28;20065;-83
2022/07/28 15:37:52;;;;;;;5.38;3.33;;;;;;;;;;4995404;28;20069;-83
2022/07/28 15:40:18;;;;;;;5.57;2.30;;;;;;;;;;4984827;28;20069;-82
2022/07/28 15:42:45;;;;;;;4.93;2.67;;;;;;;;;;4981597;28;20459;-83
2022/07/28 15:45:11;;;;;;;6.30;2.72;;;;;;;;;;4997628;28;20097;-84
2022/07/28 15:47:37;;;;;;;5.95;2.83;;;;;;;;;;4978821;28;22864;-85
2022/07/28 15:50:03;;;;;;;3.75;2.47;;;27.40;66.40;;;;;;4988159;28;20041;-85
2022/07/28 15:52:29;;;;;;;7.47;2.55;;;;;;;;;;4981162;28;20027;-85
2022/07/28 15:54:55;;;;;;;7.43;2.60;;;;;;;;;;4996359;28;20030;-83
2022/07/28 15:57:21;;;;;;;4.22;2.55;;;;;;;;;;5005186;28;20120;-86
2022/07/28 15:59:47;;;;;;;4.13;2.63;;;27.40;66.20;;;;;;5006984;28;20023;-85
2022/07/28 16:02:13;;;;;;;8.93;2.70;;;;;;;;;;4994482;28;20439;-84
2022/07/28 16:04:41;;;;;;;6.40;2.28;;;;;;;;;;4983450;28;20030;-86
2022/07/28 16:07:18;;;;;;;6.18;2.60;;;27.40;65.90;;;;;;4995109;28;20045;-87
2022/07/28 16:09:46;;;;;;;6.45;2.55;;;27.50;66.20;;;;;;4979003;28;20041;-85
2022/07/28 16:12:15;;;;;;;7.20;2.40;;;27.50;67.50;;;;;;4970969;28;20026;-84
2022/07/28 16:14:41;;;;;;;4.68;2.50;;;27.50;65.20;;;;;;4991966;28;20038;-82
2022/07/28 16:17:07;;;;;;;3.60;2.40;;;27.40;66.70;;;;;;4978622;28;20179;-82
2022/07/28 16:19:34;;;;;;;5.50;2.47;;;;;;;;;;4970119;28;20051;-82
2022/07/28 16:22:01;;;;;;;6.63;2.50;;;;;;;;;;4976797;28;20045;-84
2022/07/28 16:24:28;;;;;;;5.35;2.10;;;;;;;;;;4975258;28;20032;-86